JE2VQT-13 Weather Reports


Display with metric or nautical units.
time (UTC)temp
F
wind
direction
speed
MPH
gust
MPH
rain 1hr
in
rain 24hr
in
rain mn
in
humidity
%
barometer
mb
20190122015742 54 24 0.0 0.0 0.00 0.00 0.00 15 1014.0
20190122013824 54 348 0.0 1.0 0.00 0.00 0.00 15 1015.0
20190122012348 54 60 0.0 0.0 0.00 0.00 0.00 15 1014.0
20190121225948 54 335 1.0 1.0 0.00 0.00 0.00 15 1014.0
20190121224328 54 0 1.0 1.0 0.00 0.00 0.00 15 1014.0
20190121223836 54 276 3.0 3.0 0.00 0.00 0.00 15 1014.0
20190121222743 54 292 2.0 0.0 0.00 0.00 0.00 15 1014.0
20190121215730 54 22 1.0 1.0 0.00 0.00 0.00 15 1014.0
20190121214442 54 315 1.0 1.0 0.00 0.00 0.00 15 1014.9
20190121212840 54 292 0.0 0.0 0.00 0.00 0.00 15 1015.0
20190121211934 54 292 0.0 0.0 0.00 0.00 0.00 15 1015.0
20190121205958 54 22 0.0 2.0 0.00 0.00 0.00 15 1015.0
20190121203944 54 338 2.0 1.0 0.00 0.00 0.00 15 1015.0
20190121202823 54 338 2.0 1.0 0.00 0.00 0.00 15 1015.0
20190121195849 54 338 1.0 1.0 0.00 0.00 0.00 15 1015.0
20190121194400 54 45 1.0 0.0 0.00 0.00 0.00 15 1015.0
20190121193737 54 45 1.0 0.0 0.00 0.00 0.00 15 1015.0
20190121191447 54 315 0.0 0.0 0.00 0.00 0.00 15 1015.0
20190121184353 54 315 0.0 0.0 0.00 0.00 0.00 15 1015.0
20190121160844 54 292 0.0 0.0 0.00 0.00 0.00 15 1015.0
20190121155851 54 292 0.0 0.0 0.00 0.00 0.00 15 1014.0
20190121151944 54 292 0.0 0.0 0.00 0.00 0.00 15 1014.0
20190121142929 54 292 0.0 0.0 0.00 0.00 0.00 15 1014.0
20190121132756 54 292 0.0 0.0 0.00 0.00 0.00 15 1014.0
20190121132444 54 292 0.0 0.0 0.00 0.00 0.00 15 1014.0
20190121105424 54 45 0.0 0.0 0.00 0.00 0.00 15 1015.0
20190121100459 54 45 0.0 0.0 0.00 0.00 0.00 15 1015.0
20190121094948 54 22 0.0 0.0 0.00 0.00 0.00 15 1015.0
20190121093756 54 68 1.0 2.0 0.00 0.00 0.00 15 1015.0
20190121092912 54 68 0.0 0.0 0.00 0.00 0.00 15 1015.0
20190121092849 54 68 0.0 0.0 0.00 0.00 0.00 15 1015.0
20190121090643 54 58 0.0 0.0 0.00 0.00 0.00 15 1015.0
20190121085957 54 45 0.0 0.0 0.00 0.00 0.00 15 1014.0
20190121082829 54 22 0.0 0.0 0.00 0.00 0.00 15 1014.0
20190121081859 54 22 0.0 0.0 0.00 0.00 0.00 15 1014.0
20190121081330 54 22 0.0 0.0 0.00 0.00 0.00 15 1015.0
20190121073440 54 338 0.0 0.0 0.00 0.00 0.00 15 1015.0
20190121071500 54 338 0.0 0.0 0.00 0.00 0.00 15 1015.0
20190121061944 54 315 3.0 5.0 0.00 0.00 0.00 15 1014.0
20190121061445 54 315 3.0 5.0 0.00 0.00 0.00 15 1014.0
20190121053644 54 36 0.0 1.0 0.00 0.00 0.00 15 1014.0
20190121045756 54 90 1.0 2.0 0.00 0.00 0.00 15 1014.0
20190121044939 54 345 1.0 3.0 0.00 0.00 0.00 15 1014.0
20190121044238 54 311 1.0 2.0 0.00 0.00 0.00 15 1014.0
20190121042755 54 36 0.0 1.0 0.00 0.00 0.00 15 1015.0
20190121041754 54 5 2.0 6.0 0.00 0.00 0.00 15 1015.0
20190121041432 54 45 0.0 0.0 0.00 0.00 0.00 15 1015.0
20190121040654 54 56 0.0 1.0 0.00 0.00 0.00 15 1015.0
20190121035813 54 35 0.0 2.0 0.00 0.00 0.00 15 1015.0
20190121035256 54 61 1.0 2.0 0.00 0.00 0.00 15 1015.0
20190121034346 54 68 1.0 1.0 0.00 0.00 0.00 15 1015.0
20190121032737 54 75 1.0 1.0 0.00 0.00 0.00 15 1015.0
20190121031747 54 45 0.0 0.0 0.00 0.00 0.00 15 1015.0
20190121030738 54 22 0.0 0.0 0.00 0.00 0.00 15 1015.0
20190121023747 54 343 2.0 5.0 0.00 0.00 0.00 15 1016.0
20190121021235 54 45 0.0 0.0 0.00 0.00 0.00 15 1017.0